Time;durP1;ratioP1;P1;durP2;ratioP2;P2;SDS_P1;SDS_P2;PMS_P1;PMS_P2;Temp;Humidity;BMP_temperature;BMP_pressure;BME280_temperature;BME280_humidity;BME280_pressure;Samples;Min_cycle;Max_cycle;Signal;HPM_P1;HPM_P2
2023/12/17 00:01:07;;;;;;;1.00;0.88;;;9.40;99.90;;;;;;4940804;29;20036;-92
2023/12/17 00:03:33;;;;;;;2.67;0.90;;;9.30;99.90;;;;;;4947992;29;20027;-93
2023/12/17 00:05:59;;;;;;;1.42;0.65;;;9.30;99.90;;;;;;4959842;29;20125;-94
2023/12/17 00:08:25;;;;;;;0.80;0.55;;;9.30;99.90;;;;;;4940288;29;20030;-95
2023/12/17 00:10:54;;;;;;;0.65;0.60;;;9.30;99.90;;;;;;4942360;29;20027;-94
2023/12/17 00:13:20;;;;;;;0.85;0.60;;;9.30;99.90;;;;;;4946795;29;20024;-94
2023/12/17 00:15:46;;;;;;;1.05;0.80;;;9.30;99.90;;;;;;4940894;29;20082;-93
2023/12/17 00:18:12;;;;;;;0.88;0.45;;;9.30;99.90;;;;;;4945884;29;20027;-93
2023/12/17 00:20:38;;;;;;;0.73;0.50;;;9.30;99.90;;;;;;4948606;29;20054;-94
2023/12/17 00:23:04;;;;;;;1.60;0.68;;;9.30;99.90;;;;;;4946489;29;20114;-93
2023/12/17 00:25:33;;;;;;;0.93;0.80;;;9.30;99.90;;;;;;4941890;29;20066;-94
2023/12/17 00:27:59;;;;;;;0.40;0.40;;;9.30;99.90;;;;;;4949109;29;20043;-93
2023/12/17 00:30:24;;;;;;;1.75;0.90;;;9.30;99.90;;;;;;4940548;29;20090;-93
2023/12/17 00:32:50;;;;;;;0.70;0.70;;;9.30;99.90;;;;;;4945774;29;20535;-92
2023/12/17 00:35:16;;;;;;;1.13;0.80;;;9.30;99.90;;;;;;4940400;29;20023;-92
2023/12/17 00:37:42;;;;;;;1.73;1.05;;;9.30;99.90;;;;;;4938752;29;20032;-93
2023/12/17 00:40:08;;;;;;;1.00;0.85;;;9.30;99.90;;;;;;4957838;29;20436;-94
2023/12/17 00:42:34;;;;;;;0.82;0.82;;;9.30;99.90;;;;;;4948678;29;20027;-93
2023/12/17 00:45:01;;;;;;;0.68;0.68;;;9.30;99.90;;;;;;4948388;29;20024;-96
2023/12/17 00:47:27;;;;;;;0.80;0.80;;;9.30;99.90;;;;;;4940209;29;20062;-95
2023/12/17 00:49:53;;;;;;;0.70;0.70;;;9.30;99.90;;;;;;4948183;29;20031;-94
2023/12/17 00:52:22;;;;;;;0.70;0.65;;;9.30;99.90;;;;;;4951578;29;20042;-94
2023/12/17 00:54:51;;;;;;;0.60;0.60;;;9.30;99.90;;;;;;4955580;29;20031;-94
2023/12/17 00:57:18;;;;;;;0.60;0.60;;;9.30;99.90;;;;;;4946441;29;20014;-93
2023/12/17 00:59:43;;;;;;;0.65;0.65;;;9.30;99.90;;;;;;4958651;29;20043;-91
2023/12/17 01:02:09;;;;;;;0.80;0.80;;;9.30;99.90;;;;;;4940545;29;20031;-93
2023/12/17 01:04:35;;;;;;;0.52;0.52;;;9.30;99.90;;;;;;4940870;29;20476;-94
2023/12/17 01:07:01;;;;;;;0.60;0.43;;;9.30;99.90;;;;;;4941657;29;20020;-94
2023/12/17 01:09:26;;;;;;;1.48;0.80;;;9.30;99.90;;;;;;4942258;29;20031;-94
2023/12/17 01:11:52;;;;;;;0.40;0.40;;;9.30;99.90;;;;;;4947184;29;20091;-93
2023/12/17 01:14:18;;;;;;;0.60;0.50;;;9.30;99.90;;;;;;4955140;29;20051;-92
2023/12/17 01:16:43;;;;;;;0.60;0.60;;;9.30;99.90;;;;;;4954260;29;20055;-93
2023/12/17 01:19:09;;;;;;;1.02;0.50;;;9.30;99.90;;;;;;4951173;29;20031;-92
2023/12/17 01:21:35;;;;;;;0.55;0.50;;;9.30;99.90;;;;;;4950902;29;20554;-93
2023/12/17 01:24:01;;;;;;;0.75;0.50;;;9.30;99.90;;;;;;4945941;29;20023;-94
2023/12/17 01:26:27;;;;;;;0.65;0.40;;;9.30;99.90;;;;;;4944176;29;20043;-94
2023/12/17 01:28:53;;;;;;;0.60;0.60;;;9.20;99.90;;;;;;4950750;29;20074;-92
2023/12/17 01:31:19;;;;;;;0.40;0.40;;;9.20;99.90;;;;;;4962969;28;20019;-92
2023/12/17 01:33:44;;;;;;;1.02;0.30;;;9.20;99.90;;;;;;4963896;28;20103;-92
2023/12/17 01:36:10;;;;;;;0.50;0.50;;;9.20;99.90;;;;;;4945638;29;20035;-94
2023/12/17 01:38:36;;;;;;;0.50;0.50;;;9.20;99.90;;;;;;4944177;29;20062;-95
2023/12/17 01:41:02;;;;;;;1.77;0.50;;;9.20;99.90;;;;;;4945643;29;20548;-94
2023/12/17 01:43:28;;;;;;;0.77;0.70;;;9.20;99.90;;;;;;4948476;29;20031;-95
2023/12/17 01:45:54;;;;;;;0.77;0.40;;;9.20;99.90;;;;;;4949119;29;20047;-95
2023/12/17 01:48:25;;;;;;;1.27;0.73;;;9.20;99.90;;;;;;4946866;29;20019;-95
2023/12/17 01:50:51;;;;;;;0.45;0.43;;;9.20;99.90;;;;;;4944702;29;20043;-95
2023/12/17 01:53:17;;;;;;;1.25;0.55;;;9.20;99.90;;;;;;4942686;29;20075;-95
2023/12/17 01:55:46;;;;;;;0.55;0.43;;;9.20;99.90;;;;;;4941820;29;20031;-95
2023/12/17 01:58:12;;;;;;;1.27;0.50;;;9.20;99.90;;;;;;4944292;29;20024;-95
2023/12/17 02:00:39;;;;;;;1.58;0.40;;;9.20;99.90;;;;;;4945567;29;20043;-96
2023/12/17 02:03:05;;;;;;;1.13;0.68;;;9.20;99.90;;;;;;4944786;29;20030;-95
2023/12/17 02:05:34;;;;;;;1.40;0.60;;;9.20;99.90;;;;;;4944530;29;20480;-95
2023/12/17 02:08:04;;;;;;;0.70;0.55;;;9.20;99.90;;;;;;4943171;29;20308;-95
2023/12/17 02:10:30;;;;;;;0.57;0.57;;;9.20;99.90;;;;;;4943500;29;20042;-95
2023/12/17 02:13:00;;;;;;;2.08;0.55;;;9.20;99.90;;;;;;4942624;29;20019;-95
2023/12/17 02:15:25;;;;;;;0.85;0.60;;;9.10;99.90;;;;;;4941584;29;20543;-96
2023/12/17 02:17:51;;;;;;;3.15;0.65;;;9.10;99.90;;;;;;4941223;29;20027;-96
2023/12/17 02:20:17;;;;;;;1.40;0.40;;;9.10;99.90;;;;;;4940488;29;20041;-95
2023/12/17 02:22:45;;;;;;;2.75;0.50;;;9.10;99.90;;;;;;4939629;29;20023;-95
2023/12/17 02:25:11;;;;;;;2.00;0.57;;;9.10;99.90;;;;;;4940343;29;20041;-95
2023/12/17 02:27:36;;;;;;;1.90;0.50;;;9.00;99.90;;;;;;4940007;29;20477;-94
2023/12/17 02:30:03;;;;;;;0.63;0.40;;;9.00;99.90;;;;;;4939827;29;20034;-94
2023/12/17 02:32:28;;;;;;;0.75;0.50;;;9.00;99.90;;;;;;4939623;29;20031;-95
2023/12/17 02:34:54;;;;;;;0.45;0.40;;;9.00;99.90;;;;;;4940253;29;20028;-95
2023/12/17 02:37:20;;;;;;;1.77;0.70;;;9.00;99.90;;;;;;4939260;29;20027;-94
2023/12/17 02:39:46;;;;;;;0.40;0.40;;;9.00;99.90;;;;;;4939364;29;20178;-94
2023/12/17 02:42:12;;;;;;;2.25;0.50;;;8.90;99.90;;;;;;4939653;29;20091;-94
2023/12/17 02:44:37;;;;;;;1.40;0.60;;;9.00;99.90;;;;;;4940827;29;20488;-94
2023/12/17 02:47:03;;;;;;;0.57;0.43;;;9.00;99.90;;;;;;4945448;29;20041;-95
2023/12/17 02:49:31;;;;;;;0.52;0.30;;;9.00;99.90;;;;;;4958849;29;20027;-94
2023/12/17 02:51:57;;;;;;;0.55;0.40;;;9.00;99.90;;;;;;4940689;29;20134;-95
2023/12/17 02:54:23;;;;;;;0.93;0.50;;;9.00;99.90;;;;;;4942568;28;20026;-93
2023/12/17 02:56:51;;;;;;;1.75;0.55;;;9.00;99.90;;;;;;4939207;29;20073;-94
2023/12/17 02:59:16;;;;;;;1.50;0.60;;;9.00;99.90;;;;;;4939816;29;20058;-95
2023/12/17 03:01:43;;;;;;;0.40;0.40;;;9.00;99.90;;;;;;4939346;29;20067;-92
2023/12/17 03:04:10;;;;;;;0.30;0.30;;;9.00;99.90;;;;;;4941180;29;20473;-94
2023/12/17 03:06:39;;;;;;;0.30;0.30;;;9.00;99.90;;;;;;4952704;29;20032;-93
2023/12/17 03:09:06;;;;;;;0.47;0.47;;;9.00;99.90;;;;;;4939094;29;20028;-95
2023/12/17 03:11:32;;;;;;;0.65;0.20;;;9.00;99.90;;;;;;4939173;29;20031;-94
2023/12/17 03:13:58;;;;;;;0.30;0.30;;;9.00;99.90;;;;;;4938619;29;20032;-94
2023/12/17 03:16:26;;;;;;;0.52;0.52;;;9.00;99.90;;;;;;4938750;29;20079;-94
2023/12/17 03:18:52;;;;;;;0.22;0.22;;;9.10;99.90;;;;;;4938130;29;20031;-95
2023/12/17 03:21:18;;;;;;;0.30;0.30;;;9.10;99.90;;;;;;4956282;29;20039;-94
2023/12/17 03:23:44;;;;;;;0.40;0.40;;;9.10;99.90;;;;;;4939134;29;20027;-94
2023/12/17 03:26:09;;;;;;;0.40;0.40;;;9.10;99.90;;;;;;4938690;29;20031;-93
2023/12/17 03:28:35;;;;;;;0.35;0.35;;;9.10;99.90;;;;;;4939031;29;20029;-93
2023/12/17 03:31:01;;;;;;;0.30;0.30;;;9.10;99.90;;;;;;4938872;29;20034;-94
2023/12/17 03:33:26;;;;;;;0.40;0.40;;;9.10;99.90;;;;;;4939015;28;20031;-94
2023/12/17 03:35:52;;;;;;;0.85;0.50;;;9.10;99.90;;;;;;4940652;29;20035;-94
2023/12/17 03:38:18;;;;;;;0.55;0.55;;;9.10;99.90;;;;;;4957387;29;20074;-94
2023/12/17 03:40:44;;;;;;;0.70;0.70;;;9.10;99.90;;;;;;4942499;29;20050;-94
2023/12/17 03:43:10;;;;;;;0.70;0.70;;;9.00;99.90;;;;;;4942384;29;20027;-96
2023/12/17 03:45:36;;;;;;;0.93;0.90;;;9.00;99.90;;;;;;4942645;29;20023;-94
2023/12/17 03:48:02;;;;;;;2.25;0.70;;;9.10;99.90;;;;;;4942176;29;20023;-94
2023/12/17 03:50:28;;;;;;;3.10;1.00;;;9.10;99.90;;;;;;4942102;29;20058;-94
2023/12/17 03:52:54;;;;;;;1.15;0.98;;;9.10;99.90;;;;;;4941588;29;20467;-95
2023/12/17 03:55:20;;;;;;;0.93;0.93;;;9.10;99.90;;;;;;4941723;29;20432;-94
2023/12/17 03:57:49;;;;;;;1.20;1.10;;;9.10;99.90;;;;;;4942219;29;20027;-95
2023/12/17 04:00:15;;;;;;;1.13;1.05;;;9.10;99.90;;;;;;4942123;29;20031;-95
2023/12/17 04:02:41;;;;;;;1.30;1.13;;;9.00;99.90;;;;;;4960200;29;20037;-93
2023/12/17 04:05:08;;;;;;;2.03;1.40;;;9.00;99.90;;;;;;4946185;29;20028;-93
2023/12/17 04:07:34;;;;;;;2.60;1.17;;;9.00;99.90;;;;;;4948502;29;20499;-95
2023/12/17 04:10:01;;;;;;;1.70;1.30;;;9.00;99.90;;;;;;4942577;29;20028;-95
2023/12/17 04:12:27;;;;;;;1.63;1.38;;;9.00;99.90;;;;;;4944871;29;20033;-94
2023/12/17 04:14:53;;;;;;;3.22;1.20;;;9.00;99.90;;;;;;4943399;29;20038;-94
2023/12/17 04:17:18;;;;;;;1.67;1.38;;;9.00;99.90;;;;;;4962304;28;20023;-92
2023/12/17 04:19:44;;;;;;;1.25;1.00;;;9.00;99.90;;;;;;4981115;28;20102;-92
2023/12/17 04:22:10;;;;;;;1.88;1.30;;;8.90;99.90;;;;;;4956580;29;20050;-94
2023/12/17 04:24:36;;;;;;;1.98;0.90;;;8.90;99.90;;;;;;4941235;29;20023;-93
2023/12/17 04:27:01;;;;;;;1.45;1.02;;;8.90;99.90;;;;;;4941204;29;20038;-94
2023/12/17 04:29:27;;;;;;;3.67;1.10;;;8.90;99.90;;;;;;4940652;29;20401;-95
2023/12/17 04:31:53;;;;;;;1.85;1.27;;;8.90;99.90;;;;;;4941390;29;20031;-94
2023/12/17 04:34:19;;;;;;;5.07;1.75;;;8.90;99.90;;;;;;4942581;29;20031;-95
2023/12/17 04:36:44;;;;;;;2.15;1.48;;;8.90;99.90;;;;;;4947314;29;20071;-90
2023/12/17 04:39:10;;;;;;;1.75;1.08;;;8.90;99.90;;;;;;4959855;29;20020;-94
2023/12/17 04:41:37;;;;;;;2.10;1.20;;;8.90;99.90;;;;;;4941345;29;20040;-94
2023/12/17 04:44:03;;;;;;;1.95;1.20;;;8.90;99.90;;;;;;4942068;29;20030;-93
2023/12/17 04:46:29;;;;;;;2.45;1.65;;;8.90;99.90;;;;;;4942697;29;20027;-91
2023/12/17 04:48:56;;;;;;;1.40;1.05;;;8.90;99.90;;;;;;4947818;29;20023;-93
2023/12/17 04:51:22;;;;;;;5.82;1.35;;;8.90;99.90;;;;;;4954752;29;20050;-92
2023/12/17 04:53:51;;;;;;;5.93;1.90;;;8.80;99.90;;;;;;4962786;28;20023;-90
2023/12/17 04:56:21;;;;;;;3.72;1.45;;;8.90;99.90;;;;;;4962693;28;20019;-95
2023/12/17 04:58:47;;;;;;;4.40;1.60;;;8.80;99.90;;;;;;4979227;29;20023;-91
2023/12/17 05:01:13;;;;;;;5.38;1.98;;;8.80;99.90;;;;;;4963016;29;20586;-91
2023/12/17 05:03:38;;;;;;;5.15;1.77;;;8.80;99.90;;;;;;4948223;29;20031;-94
2023/12/17 05:06:05;;;;;;;4.68;1.42;;;8.80;99.90;;;;;;4946970;29;20031;-95
2023/12/17 05:08:31;;;;;;;4.75;1.30;;;8.80;99.90;;;;;;4953903;29;20032;-94
2023/12/17 05:10:56;;;;;;;5.00;1.40;;;8.80;99.90;;;;;;4959397;29;20094;-94
2023/12/17 05:13:22;;;;;;;3.30;1.33;;;8.80;99.90;;;;;;4958124;29;20016;-93
2023/12/17 05:15:48;;;;;;;5.70;1.88;;;8.80;99.90;;;;;;4949916;29;20099;-94
2023/12/17 05:18:14;;;;;;;4.07;1.60;;;8.80;99.90;;;;;;4945954;29;20051;-93
2023/12/17 05:20:40;;;;;;;6.50;1.52;;;8.80;99.90;;;;;;4944531;29;20107;-95
2023/12/17 05:23:07;;;;;;;5.82;2.10;;;8.80;99.90;;;;;;4944614;29;20027;-94
2023/12/17 05:25:32;;;;;;;6.88;1.67;;;8.80;99.90;;;;;;4943337;29;20031;-94
2023/12/17 05:27:58;;;;;;;5.82;1.42;;;8.80;99.90;;;;;;4960185;29;20028;-94
2023/12/17 05:30:24;;;;;;;8.15;2.65;;;8.80;99.90;;;;;;4941781;29;20527;-92
2023/12/17 05:32:50;;;;;;;4.47;1.27;;;8.80;99.90;;;;;;4941848;29;20035;-94
2023/12/17 05:35:15;;;;;;;4.15;1.42;;;8.80;99.90;;;;;;4940994;29;20027;-94
2023/12/17 05:37:41;;;;;;;5.38;1.20;;;8.80;99.90;;;;;;4940558;29;20122;-95
2023/12/17 05:40:08;;;;;;;8.73;2.00;;;8.80;99.90;;;;;;4940700;29;20398;-94
2023/12/17 05:42:34;;;;;;;8.63;1.33;;;8.80;99.90;;;;;;4957673;29;20031;-95
2023/12/17 05:45:00;;;;;;;4.65;1.75;;;8.80;99.90;;;;;;4940823;29;20023;-93
2023/12/17 05:47:26;;;;;;;4.60;1.50;;;8.90;99.90;;;;;;4940837;29;20091;-96
2023/12/17 05:49:51;;;;;;;6.20;1.50;;;8.80;99.90;;;;;;4939836;29;20035;-94
2023/12/17 05:52:17;;;;;;;5.85;1.38;;;8.80;99.90;;;;;;4939612;29;20039;-95
2023/12/17 05:54:44;;;;;;;5.97;1.20;;;8.80;99.90;;;;;;4957325;29;20055;-94
2023/12/17 05:57:10;;;;;;;3.13;1.25;;;8.80;99.90;;;;;;4956229;28;20103;-94
2023/12/17 05:59:35;;;;;;;9.52;1.38;;;8.90;99.90;;;;;;4939983;29;20055;-94
2023/12/17 06:02:01;;;;;;;8.27;1.55;;;8.80;99.90;;;;;;4939561;29;20058;-94
2023/12/17 06:04:27;;;;;;;8.20;1.40;;;8.80;99.90;;;;;;4940079;29;20091;-94
2023/12/17 06:06:55;;;;;;;7.97;1.63;;;8.80;99.90;;;;;;4939595;29;20027;-93
2023/12/17 06:09:22;;;;;;;6.60;1.33;;;8.80;99.90;;;;;;4942744;29;20051;-93
2023/12/17 06:11:49;;;;;;;6.40;1.40;;;8.80;99.90;;;;;;4945583;29;20037;-95
2023/12/17 06:14:16;;;;;;;7.28;1.52;;;8.80;99.90;;;;;;4939734;29;20052;-93
2023/12/17 06:16:42;;;;;;;7.80;1.48;;;8.80;99.90;;;;;;4957640;29;20047;-95
2023/12/17 06:19:08;;;;;;;9.02;1.58;;;8.80;99.90;;;;;;4941969;29;20034;-94
2023/12/17 06:21:34;;;;;;;8.55;1.73;;;8.80;99.90;;;;;;4950286;28;20066;-91
2023/12/17 06:24:02;;;;;;;9.38;1.63;;;8.70;99.90;;;;;;4962421;28;20011;-93
2023/12/17 06:26:28;;;;;;;11.48;3.10;;;8.80;99.90;;;;;;4958621;28;20038;-93
2023/12/17 06:28:53;;;;;;;4.97;1.45;;;8.70;99.90;;;;;;4950828;29;20385;-94
2023/12/17 06:31:19;;;;;;;8.77;1.98;;;8.70;99.90;;;;;;4938681;29;20027;-94
2023/12/17 06:33:46;;;;;;;7.50;1.80;;;8.70;99.90;;;;;;4939562;29;20033;-94
2023/12/17 06:36:11;;;;;;;6.93;1.60;;;8.70;99.90;;;;;;4956704;29;20032;-95
2023/12/17 06:38:41;;;;;;;5.72;1.67;;;8.70;99.90;;;;;;4939046;29;20118;-95
2023/12/17 06:41:10;;;;;;;8.27;1.73;;;8.70;99.90;;;;;;4939774;29;20091;-93
2023/12/17 06:43:36;;;;;;;8.98;1.40;;;8.70;99.90;;;;;;4940252;29;20051;-93
2023/12/17 06:46:06;;;;;;;11.32;2.15;;;8.70;99.90;;;;;;4941814;29;20041;-94
2023/12/17 06:48:35;;;;;;;8.38;1.42;;;8.70;99.90;;;;;;4947615;29;20016;-94
2023/12/17 06:51:02;;;;;;;11.90;1.45;;;8.80;99.90;;;;;;4944758;29;20042;-95
2023/12/17 06:53:29;;;;;;;6.65;1.48;;;8.70;99.90;;;;;;4942517;29;20499;-93
2023/12/17 06:55:54;;;;;;;19.52;2.75;;;8.80;99.90;;;;;;4939945;29;20469;-94
2023/12/17 06:58:21;;;;;;;12.63;1.80;;;8.70;99.90;;;;;;4939689;29;20110;-95
2023/12/17 07:00:46;;;;;;;8.80;1.58;;;8.70;99.90;;;;;;4940840;29;20059;-95
2023/12/17 07:03:12;;;;;;;12.23;1.77;;;8.80;99.90;;;;;;4950766;29;20023;-94
2023/12/17 07:05:39;;;;;;;14.63;2.15;;;8.80;99.90;;;;;;4962182;28;20031;-91
2023/12/17 07:08:05;;;;;;;13.30;1.95;;;8.80;99.90;;;;;;4961067;28;20019;-93
2023/12/17 07:10:31;;;;;;;13.02;2.17;;;8.90;99.90;;;;;;4965845;29;20038;-94
2023/12/17 07:12:57;;;;;;;8.95;2.35;;;8.90;99.90;;;;;;4939655;29;20086;-94
2023/12/17 07:15:23;;;;;;;11.38;1.70;;;8.90;99.90;;;;;;4938951;29;20089;-93
2023/12/17 07:17:48;;;;;;;8.38;1.25;;;8.90;99.90;;;;;;4938537;29;20110;-92
2023/12/17 07:20:14;;;;;;;6.65;1.30;;;8.90;99.90;;;;;;4938537;29;20035;-93
2023/12/17 07:22:40;;;;;;;7.07;1.83;;;8.90;99.90;;;;;;4938616;29;20046;-93
2023/12/17 07:25:06;;;;;;;10.02;1.83;;;8.90;99.90;;;;;;4955019;29;20023;-92
2023/12/17 07:27:32;;;;;;;9.88;1.60;;;8.90;99.90;;;;;;4938012;29;20047;-92
2023/12/17 07:29:58;;;;;;;7.35;1.85;;;8.90;99.90;;;;;;4955300;29;20030;-93
2023/12/17 07:32:23;;;;;;;14.65;1.95;;;8.90;99.90;;;;;;4937672;29;20031;-94
2023/12/17 07:34:49;;;;;;;10.20;2.92;;;8.90;99.90;;;;;;4945852;29;20023;-94
2023/12/17 07:37:15;;;;;;;13.90;1.92;;;8.80;99.90;;;;;;4946714;29;20023;-94
2023/12/17 07:39:41;;;;;;;7.88;1.98;;;8.80;99.90;;;;;;4939489;29;20023;-94
2023/12/17 07:42:07;;;;;;;11.48;2.28;;;8.80;99.90;;;;;;4944981;29;20042;-94
2023/12/17 07:44:33;;;;;;;9.80;2.15;;;8.80;99.90;;;;;;4942445;29;20063;-93
2023/12/17 07:46:58;;;;;;;16.10;2.30;;;8.80;99.90;;;;;;4938437;29;20027;-94
2023/12/17 07:49:25;;;;;;;13.85;1.92;;;8.80;99.90;;;;;;4955114;29;20050;-93
2023/12/17 07:51:52;;;;;;;12.73;1.98;;;8.80;99.90;;;;;;4935812;29;20486;-94
2023/12/17 07:54:18;;;;;;;6.65;1.65;;;8.80;99.90;;;;;;4937772;29;20453;-94
2023/12/17 07:56:44;;;;;;;10.20;1.80;;;8.80;99.90;;;;;;4944332;29;20054;-94
2023/12/17 07:59:09;;;;;;;11.70;2.03;;;8.80;99.90;;;;;;4943669;29;20035;-94
2023/12/17 08:01:35;;;;;;;9.20;1.50;;;8.80;99.90;;;;;;4937674;29;20043;-92
2023/12/17 08:04:01;;;;;;;7.80;1.73;;;8.80;99.90;;;;;;4937694;29;20020;-92
2023/12/17 08:06:27;;;;;;;12.55;1.88;;;8.80;99.90;;;;;;4937987;29;20042;-94
2023/12/17 08:08:54;;;;;;;11.98;2.15;;;8.70;99.90;;;;;;4939163;29;20473;-94
2023/12/17 08:11:20;;;;;;;13.95;1.55;;;8.70;99.90;;;;;;4948256;29;20031;-95
2023/12/17 08:13:47;;;;;;;14.10;3.10;;;8.80;99.90;;;;;;4953744;29;20011;-94
2023/12/17 08:16:13;;;;;;;12.95;2.38;;;8.70;99.90;;;;;;4956170;29;20033;-96
2023/12/17 08:18:38;;;;;;;13.05;1.77;;;8.80;99.90;;;;;;4938819;29;20031;-95
2023/12/17 08:21:05;;;;;;;8.65;2.30;;;8.80;99.90;;;;;;4951040;28;20403;-94
2023/12/17 08:23:31;;;;;;;12.75;2.03;;;8.80;99.90;;;;;;4955311;29;20028;-92
2023/12/17 08:25:57;;;;;;;22.85;4.53;;;8.80;99.90;;;;;;4951060;29;20027;-93
2023/12/17 08:28:23;;;;;;;13.38;2.97;;;8.80;99.90;;;;;;4964986;29;20038;-93
2023/12/17 08:30:49;;;;;;;17.23;1.95;;;8.80;99.90;;;;;;4951554;29;20055;-93
2023/12/17 08:33:16;;;;;;;17.73;2.60;;;8.80;99.90;;;;;;4968116;29;20023;-91
2023/12/17 08:35:44;;;;;;;9.65;2.10;;;8.80;99.90;;;;;;4948881;29;20067;-93
2023/12/17 08:38:10;;;;;;;13.60;3.05;;;8.80;99.90;;;;;;4948937;29;20264;-93
2023/12/17 08:40:38;;;;;;;16.70;2.30;;;8.80;99.90;;;;;;4957576;29;20039;-93
2023/12/17 08:43:06;;;;;;;11.55;2.00;;;8.80;99.90;;;;;;4951263;29;20027;-92
2023/12/17 08:45:32;;;;;;;15.73;2.15;;;8.80;99.90;;;;;;4959213;29;20027;-92
2023/12/17 08:47:59;;;;;;;13.32;2.83;;;8.80;99.90;;;;;;4956813;29;20027;-93
2023/12/17 08:50:27;;;;;;;18.90;2.25;;;8.80;99.90;;;;;;4949292;28;20059;-94
2023/12/17 08:52:52;;;;;;;14.60;2.58;;;8.80;99.90;;;;;;4956253;29;20027;-93
2023/12/17 08:55:21;;;;;;;12.85;1.98;;;8.80;99.90;;;;;;4952561;29;20035;-93
2023/12/17 08:57:47;;;;;;;7.57;1.88;;;8.80;99.90;;;;;;4947342;29;20035;-94
2023/12/17 09:00:16;;;;;;;16.58;3.38;;;8.80;99.90;;;;;;4945473;29;20027;-94
2023/12/17 09:02:42;;;;;;;8.60;1.73;;;8.80;99.90;;;;;;4945407;29;20095;-93
2023/12/17 09:05:08;;;;;;;14.95;3.72;;;8.80;99.90;;;;;;4939462;29;20027;-93
2023/12/17 09:07:34;;;;;;;14.80;2.20;;;8.80;99.90;;;;;;4941092;29;20035;-92
2023/12/17 09:10:00;;;;;;;12.70;2.08;;;8.80;99.90;;;;;;4942885;29;20473;-93
2023/12/17 09:12:26;;;;;;;7.78;2.08;;;8.80;99.90;;;;;;4948358;29;20020;-94
2023/12/17 09:14:52;;;;;;;13.40;2.78;;;8.80;99.90;;;;;;4940128;29;20236;-94
2023/12/17 09:17:18;;;;;;;17.08;2.47;;;8.90;99.90;;;;;;4939825;29;20048;-94
2023/12/17 09:19:44;;;;;;;17.27;2.70;;;8.90;99.90;;;;;;4951281;29;20047;-94
2023/12/17 09:22:10;;;;;;;13.95;1.70;;;8.90;99.90;;;;;;4939746;29;20118;-95
2023/12/17 09:24:35;;;;;;;4.05;1.50;;;8.90;99.90;;;;;;4940329;29;20078;-93
2023/12/17 09:27:04;;;;;;;15.10;2.33;;;8.90;99.90;;;;;;4939824;29;20031;-93
2023/12/17 09:29:30;;;;;;;16.27;2.00;;;9.00;99.90;;;;;;4938725;29;20481;-94
2023/12/17 09:31:56;;;;;;;20.92;2.60;;;9.00;99.90;;;;;;4944665;29;20496;-93
2023/12/17 09:34:22;;;;;;;13.75;1.90;;;9.00;99.90;;;;;;4945328;29;20024;-94
2023/12/17 09:36:47;;;;;;;14.63;2.03;;;9.10;99.90;;;;;;4941218;29;20054;-93
2023/12/17 09:39:13;;;;;;;11.88;2.20;;;9.10;99.90;;;;;;4951957;29;20489;-93
2023/12/17 09:41:41;;;;;;;15.38;1.77;;;9.20;99.90;;;;;;4960872;28;20027;-93
2023/12/17 09:44:08;;;;;;;15.20;2.35;;;9.30;99.90;;;;;;4962125;28;20008;-92
2023/12/17 09:46:35;;;;;;;12.07;1.85;;;9.30;99.90;;;;;;4965973;29;20041;-93
2023/12/17 09:49:01;;;;;;;10.05;1.98;;;9.40;99.90;;;;;;4947061;29;20023;-95
2023/12/17 09:51:28;;;;;;;16.02;3.25;;;9.50;99.90;;;;;;4939865;29;20050;-94
2023/12/17 09:53:58;;;;;;;17.13;2.13;;;9.70;99.90;;;;;;4946060;29;20031;-93
2023/12/17 09:56:23;;;;;;;13.98;2.22;;;9.70;99.90;;;;;;4956210;29;20027;-91
2023/12/17 09:58:49;;;;;;;15.73;2.13;;;9.70;99.90;;;;;;4958044;29;20023;-93
2023/12/17 10:01:15;;;;;;;11.32;1.90;;;9.70;99.90;;;;;;4949174;29;20066;-93
2023/12/17 10:03:41;;;;;;;17.15;2.28;;;9.80;99.90;;;;;;4956024;29;20059;-92
2023/12/17 10:06:07;;;;;;;12.15;2.03;;;9.80;99.90;;;;;;4940509;29;20481;-92
2023/12/17 10:08:34;;;;;;;18.00;3.17;;;9.80;99.90;;;;;;4942233;29;20034;-92
2023/12/17 10:11:00;;;;;;;13.30;1.88;;;9.90;99.90;;;;;;4958214;29;20027;-92
2023/12/17 10:13:26;;;;;;;13.60;2.95;;;9.90;99.90;;;;;;4944249;29;20141;-93
2023/12/17 10:15:54;;;;;;;15.10;2.75;;;9.80;99.90;;;;;;4952002;29;20552;-92
2023/12/17 10:18:21;;;;;;;10.27;1.63;;;9.80;99.90;;;;;;4961709;29;20046;-92
2023/12/17 10:20:48;;;;;;;15.32;2.67;;;9.80;99.90;;;;;;4939124;29;20027;-92
2023/12/17 10:23:14;;;;;;;15.43;2.53;;;9.90;99.90;;;;;;4956764;29;20027;-91
2023/12/17 10:25:41;;;;;;;14.95;2.22;;;9.90;99.90;;;;;;4954900;29;20031;-93
2023/12/17 10:28:09;;;;;;;15.63;2.40;;;9.90;99.90;;;;;;4954754;29;20031;-92
2023/12/17 10:30:35;;;;;;;10.13;2.00;;;9.90;99.90;;;;;;4938401;29;20030;-94
2023/12/17 10:33:02;;;;;;;11.30;2.03;;;10.00;99.90;;;;;;4953500;29;20476;-93
2023/12/17 10:35:32;;;;;;;14.20;2.50;;;10.00;99.90;;;;;;4945273;29;20023;-93
2023/12/17 10:38:07;;;;;;;12.80;3.60;;;9.90;99.90;;;;;;4940521;29;20501;-94
2023/12/17 10:40:35;;;;;;;10.77;1.92;;;10.00;99.90;;;;;;4947624;29;20047;-94
2023/12/17 10:43:03;;;;;;;17.13;2.60;;;10.00;99.90;;;;;;4956246;28;20043;-92
2023/12/17 10:45:31;;;;;;;9.95;2.30;;;10.00;99.90;;;;;;4938796;29;20035;-92
2023/12/17 10:47:58;;;;;;;11.55;2.10;;;10.00;99.90;;;;;;4938553;29;20114;-93
2023/12/17 10:50:25;;;;;;;12.98;2.00;;;10.10;99.90;;;;;;4939076;28;20066;-93
2023/12/17 10:52:52;;;;;;;15.20;2.53;;;10.10;99.90;;;;;;4939593;29;20054;-94
2023/12/17 10:55:18;;;;;;;14.55;2.33;;;10.20;99.90;;;;;;4940288;29;20023;-93
2023/12/17 10:57:55;;;;;;;13.48;2.20;;;10.20;99.90;;;;;;4939139;29;20042;-93
2023/12/17 11:00:25;;;;;;;15.95;2.03;;;10.20;99.90;;;;;;4938910;29;20046;-92
2023/12/17 11:02:54;;;;;;;10.95;1.85;;;10.30;99.90;;;;;;4935191;29;20055;-93
2023/12/17 11:05:20;;;;;;;13.18;1.90;;;10.40;99.90;;;;;;4935449;29;20118;-94
2023/12/17 11:07:45;;;;;;;12.45;2.03;;;10.40;99.90;;;;;;4934697;29;20059;-92
2023/12/17 11:10:12;;;;;;;13.57;1.80;;;10.50;99.90;;;;;;4936052;29;20082;-94
2023/12/17 11:12:40;;;;;;;16.77;2.50;;;10.60;99.90;;;;;;4941417;29;20038;-95
2023/12/17 11:15:06;;;;;;;10.30;1.80;;;10.60;99.90;;;;;;4936435;29;20047;-93
2023/12/17 11:17:32;;;;;;;14.90;2.85;;;10.70;99.90;;;;;;4920346;29;20118;-93
2023/12/17 11:20:02;;;;;;;16.52;2.70;;;10.90;99.90;;;;;;4936171;29;20115;-91
2023/12/17 11:22:29;;;;;;;18.77;3.15;;;11.00;99.90;;;;;;4938385;29;20058;-94
2023/12/17 11:24:56;;;;;;;15.43;3.13;;;11.20;99.90;;;;;;4938813;29;20031;-91
2023/12/17 11:27:23;;;;;;;13.38;3.50;;;11.40;99.90;;;;;;4934990;29;20024;-92
2023/12/17 11:29:50;;;;;;;13.73;2.40;;;11.60;99.90;;;;;;4940666;29;20028;-95
2023/12/17 11:32:18;;;;;;;15.18;2.42;;;11.80;99.90;;;;;;4936470;29;20031;-95
2023/12/17 11:34:48;;;;;;;17.55;2.53;;;12.00;99.90;;;;;;4941314;29;20032;-94
2023/12/17 11:37:22;;;;;;;10.50;2.25;;;12.10;99.90;;;;;;4947414;29;20023;-93
2023/12/17 11:39:49;;;;;;;12.25;2.00;;;12.40;99.90;;;;;;4939043;29;20031;-93
2023/12/17 11:42:16;;;;;;;7.25;1.15;;;12.60;99.90;;;;;;4951484;28;20034;-91
2023/12/17 11:44:43;;;;;;;10.68;2.53;;;12.90;99.90;;;;;;4955455;29;20043;-92
2023/12/17 11:47:12;;;;;;;8.93;1.60;;;13.00;99.90;;;;;;4956643;29;20034;-91
2023/12/17 11:49:38;;;;;;;10.70;2.13;;;13.00;99.90;;;;;;4953109;29;20027;-93
2023/12/17 11:52:16;;;;;;;9.30;1.77;;;13.00;99.90;;;;;;4952577;29;20039;-91
2023/12/17 11:54:42;;;;;;;13.30;2.30;;;13.10;99.90;;;;;;4951863;29;20030;-91
2023/12/17 11:57:22;;;;;;;8.82;1.55;;;13.20;99.90;;;;;;4948839;29;20028;-91
2023/12/17 11:59:50;;;;;;;11.57;2.30;;;13.10;99.90;;;;;;4944494;29;20030;-92
2023/12/17 12:02:20;;;;;;;18.10;2.20;;;12.90;99.90;;;;;;4943825;29;20043;-93
2023/12/17 12:04:46;;;;;;;11.38;1.98;;;12.80;99.90;;;;;;4943198;29;20024;-91
2023/12/17 12:07:19;;;;;;;17.25;3.17;;;12.50;99.90;;;;;;4964809;29;20035;-92
2023/12/17 12:09:45;;;;;;;10.75;1.67;;;12.30;99.90;;;;;;4969521;29;20054;-91
2023/12/17 12:12:15;;;;;;;14.10;2.60;;;12.20;99.90;;;;;;4973077;29;20032;-92
2023/12/17 12:14:43;;;;;;;19.33;2.60;;;12.10;99.90;;;;;;4953616;29;20027;-91
2023/12/17 12:17:35;;;;;;;15.00;2.15;;;12.00;99.90;;;;;;4964465;29;20032;-90
2023/12/17 12:20:01;;;;;;;8.48;1.75;;;12.00;99.90;;;;;;4979511;28;20094;-92
2023/12/17 12:22:28;;;;;;;5.45;1.40;;;12.00;99.90;;;;;;4973461;29;20050;-91
2023/12/17 12:24:55;;;;;;;11.13;2.90;;;12.00;99.90;;;;;;4967643;29;20455;-91
2023/12/17 12:27:21;;;;;;;8.10;1.98;;;12.10;99.90;;;;;;4963385;29;20027;-92
2023/12/17 12:29:48;;;;;;;11.95;2.08;;;12.10;99.90;;;;;;4945750;29;20039;-92
2023/12/17 12:32:28;;;;;;;12.93;2.60;;;12.30;99.90;;;;;;4955211;29;20122;-92
2023/12/17 12:34:55;;;;;;;9.93;2.10;;;12.40;99.90;;;;;;4938865;29;20611;-91
2023/12/17 12:37:31;;;;;;;16.38;1.85;;;12.30;99.90;;;;;;4937763;29;20046;-91
2023/12/17 12:39:57;;;;;;;11.48;1.95;;;12.10;99.90;;;;;;4954703;29;20039;-90
2023/12/17 12:42:22;;;;;;;15.20;2.17;;;12.00;99.90;;;;;;4957516;29;20027;-91
2023/12/17 12:44:49;;;;;;;16.15;1.85;;;11.90;99.90;;;;;;4956985;29;20082;-90
2023/12/17 12:47:15;;;;;;;9.95;1.77;;;11.90;99.90;;;;;;4944755;29;20031;-91